Time;durP1;ratioP1;P1;durP2;ratioP2;P2;SDS_P1;SDS_P2;PMS_P1;PMS_P2;Temp;Humidity;BMP_temperature;BMP_pressure;BME280_temperature;BME280_humidity;BME280_pressure;Samples;Min_cycle;Max_cycle;Signal;HPM_P1;HPM_P2
2022/07/23 00:00:09;;;;;;;11.97;10.63;;;;;;;19.13;100.00;96499.69;5110147;27;20212;-85
2022/07/23 00:02:36;;;;;;;12.30;11.00;;;;;;;19.10;100.00;96502.97;5116294;27;20197;-85
2022/07/23 00:05:04;;;;;;;15.77;10.43;;;;;;;19.14;100.00;96500.53;5112878;27;20229;-85
2022/07/23 00:07:31;;;;;;;12.73;10.10;;;;;;;19.20;100.00;96497.47;5109556;27;20212;-86
2022/07/23 00:09:59;;;;;;;13.83;10.70;;;;;;;19.30;100.00;96504.81;5108762;27;20204;-86
2022/07/23 00:12:27;;;;;;;11.00;9.80;;;;;;;19.36;100.00;96498.19;5110927;27;20199;-85
2022/07/23 00:14:54;;;;;;;11.03;9.80;;;;;;;19.35;100.00;96502.03;5114480;27;20200;-85
2022/07/23 00:17:21;;;;;;;10.70;8.97;;;;;;;19.33;100.00;96496.03;5110466;27;20207;-86
2022/07/23 00:19:48;;;;;;;11.63;9.40;;;;;;;19.31;100.00;96486.47;5115171;27;20238;-85
2022/07/23 00:22:15;;;;;;;12.57;10.13;;;;;;;19.27;100.00;96478.00;5109247;27;20203;-86
2022/07/23 00:24:42;;;;;;;12.10;10.40;;;;;;;19.10;100.00;96461.94;5110654;27;20212;-85
2022/07/23 00:27:11;;;;;;;13.60;11.00;;;;;;;19.06;100.00;96449.06;5112036;27;20211;-85
2022/07/23 00:29:38;;;;;;;12.70;10.60;;;;;;;19.01;100.00;96436.25;5111396;27;20315;-85
2022/07/23 00:32:05;;;;;;;12.23;10.43;;;;;;;19.05;100.00;96411.88;5109419;27;20261;-86
2022/07/23 00:34:32;;;;;;;12.63;10.90;;;;;;;19.11;100.00;96395.16;5108284;27;20208;-85
2022/07/23 00:37:00;;;;;;;14.03;11.20;;;;;;;19.06;100.00;96394.34;5120930;27;20203;-86
2022/07/23 00:39:27;;;;;;;12.17;10.97;;;;;;;19.16;100.00;96410.69;5121081;27;20214;-85
2022/07/23 00:41:54;;;;;;;13.40;11.57;;;;;;;19.10;100.00;96388.03;5110356;27;20208;-85
2022/07/23 00:44:24;;;;;;;13.67;11.47;;;;;;;19.16;100.00;96380.59;5121118;27;20204;-86
2022/07/23 00:46:53;;;;;;;12.57;11.27;;;;;;;19.15;100.00;96360.63;5105474;27;20224;-85
2022/07/23 00:49:21;;;;;;;13.93;11.83;;;;;;;19.00;100.00;96349.78;5112877;27;20200;-86
2022/07/23 00:51:49;;;;;;;14.20;12.53;;;;;;;19.07;100.00;96342.06;5118889;27;20229;-86
2022/07/23 00:54:17;;;;;;;13.33;11.70;;;;;;;19.16;100.00;96342.28;5114334;27;20196;-85
2022/07/23 00:56:46;;;;;;;12.30;10.93;;;;;;;19.16;100.00;96340.34;5114046;27;20219;-85
2022/07/23 00:59:14;;;;;;;13.17;11.87;;;;;;;19.08;100.00;96321.00;5117079;27;20208;-86
2022/07/23 01:01:45;;;;;;;13.90;11.70;;;;;;;19.09;100.00;96317.16;5114847;27;20203;-86
2022/07/23 01:04:12;;;;;;;14.77;11.57;;;;;;;19.15;100.00;96318.75;5112302;27;20207;-86
2022/07/23 01:06:40;;;;;;;15.83;12.10;;;;;;;19.28;100.00;96304.41;5119757;27;20285;-85
2022/07/23 01:09:08;;;;;;;13.50;11.53;;;;;;;19.20;100.00;96302.28;5110148;27;20212;-85
2022/07/23 01:11:36;;;;;;;14.20;11.70;;;;;;;19.16;100.00;96303.97;5121489;27;20203;-85
2022/07/23 01:14:12;;;;;;;13.27;11.97;;;;;;;19.20;100.00;96296.81;5113015;27;20364;-86
2022/07/23 01:16:39;;;;;;;13.87;12.47;;;;;;;19.13;100.00;96286.22;5108834;27;20272;-85
2022/07/23 01:19:08;;;;;;;13.63;12.17;;;;;;;19.17;100.00;96278.22;5122973;27;20200;-86
2022/07/23 01:21:41;;;;;;;13.90;12.50;;;;;;;19.07;100.00;96259.97;5125065;27;20195;-85
2022/07/23 01:24:11;;;;;;;14.03;12.53;;;;;;;19.07;100.00;96256.41;5104707;27;20197;-85
2022/07/23 01:26:45;;;;;;;14.30;12.90;;;;;;;19.02;100.00;96246.34;5112661;27;20226;-86
2022/07/23 01:29:12;;;;;;;16.47;13.50;;;;;;;19.00;100.00;96221.16;5110556;28;20245;-86
2022/07/23 01:31:40;;;;;;;14.40;12.90;;;;;;;19.12;100.00;96218.06;5113319;27;20200;-86
2022/07/23 01:34:08;;;;;;;14.73;12.77;;;;;;;19.12;100.00;96221.63;5114849;28;20204;-86
2022/07/23 01:36:35;;;;;;;14.20;12.70;;;;;;;19.02;100.00;96224.44;5108128;28;20203;-85
2022/07/23 01:39:04;;;;;;;14.83;12.67;;;;;;;19.03;100.00;96225.25;5111088;28;20197;-86
2022/07/23 01:41:33;;;;;;;16.07;13.10;;;;;;;19.05;100.00;96217.59;5108658;28;20200;-85
2022/07/23 01:44:00;;;;;;;13.77;12.37;;;;;;;19.06;100.00;96220.00;5114201;28;20223;-85
2022/07/23 01:46:27;;;;;;;13.73;12.27;;;;;;;19.22;100.00;96231.66;5114611;28;20296;-85
2022/07/23 01:48:54;;;;;;;13.83;11.50;;;;;;;19.24;100.00;96235.72;5113245;28;20352;-85
2022/07/23 01:51:59;;;;;;;12.20;10.77;;;;;;;19.24;100.00;96243.94;5116877;28;20200;-86
2022/07/23 01:54:28;;;;;;;12.23;10.90;;;;;;;19.23;100.00;96245.03;5112360;28;20200;-85
2022/07/23 01:56:57;;;;;;;12.30;11.00;;;;;;;19.38;100.00;96238.63;5106786;28;20228;-85
2022/07/23 01:59:24;;;;;;;13.80;10.30;;;;;;;19.39;100.00;96239.44;5110056;28;20267;-85
2022/07/23 02:01:52;;;;;;;11.33;10.23;;;;;;;19.44;100.00;96237.47;5112045;28;20294;-86
2022/07/23 02:04:19;;;;;;;11.20;10.00;;;;;;;19.43;100.00;96237.75;5118685;28;20193;-85
2022/07/23 02:06:47;;;;;;;11.20;10.10;;;;;;;19.47;100.00;96242.41;5111157;28;20264;-86
2022/07/23 02:09:15;;;;;;;11.27;10.07;;;;;;;19.47;100.00;96244.28;5106505;28;20226;-86
2022/07/23 02:11:42;;;;;;;11.30;10.10;;;;;;;19.49;100.00;96250.31;5107636;28;20231;-85
2022/07/23 02:14:11;;;;;;;11.43;10.33;;;;;;;19.35;100.00;96241.94;5110734;28;20351;-85
2022/07/23 02:16:38;;;;;;;11.30;10.03;;;;;;;19.34;100.00;96248.50;5106671;28;20216;-85
2022/07/23 02:19:05;;;;;;;11.93;10.67;;;;;;;19.33;100.00;96257.81;5117277;28;20204;-85
2022/07/23 02:21:32;;;;;;;11.63;10.23;;;;;;;19.32;100.00;96261.66;5115286;28;20212;-86
2022/07/23 02:24:00;;;;;;;12.50;10.27;;;;;;;19.32;100.00;96264.41;5110592;28;20284;-86
2022/07/23 02:26:27;;;;;;;13.10;10.47;;;;;;;19.37;100.00;96275.31;5114320;27;20212;-86
2022/07/23 02:28:55;;;;;;;10.73;9.63;;;;;;;19.42;100.00;96286.22;5114889;28;20203;-85
2022/07/23 02:31:24;;;;;;;12.30;10.30;;;;;;;19.38;100.00;96284.34;5115685;27;20223;-85
2022/07/23 02:33:51;;;;;;;11.00;9.73;;;;;;;19.33;100.00;96301.63;5113163;28;20202;-86
2022/07/23 02:36:18;;;;;;;11.33;9.97;;;;;;;19.25;100.00;96292.13;5118416;28;20199;-86
2022/07/23 02:38:45;;;;;;;11.07;9.98;;;;;;;19.35;100.00;96307.63;5109250;28;20687;-86
2022/07/23 02:41:12;;;;;;;11.23;10.13;;;;;;;19.39;100.00;96336.09;5113758;28;20215;-85
2022/07/23 02:43:40;;;;;;;11.20;10.00;;;;;;;19.39;100.00;96352.53;5115524;27;20201;-86
2022/07/23 02:46:07;;;;;;;11.93;10.57;;;;;;;19.34;100.00;96354.47;5118036;27;20266;-86
2022/07/23 02:48:36;;;;;;;12.05;9.82;;;;;;;19.32;100.00;96362.97;5111439;27;20200;-84
2022/07/23 02:51:04;;;;;;;11.13;9.88;;;;;;;19.37;100.00;96376.63;5115756;27;20314;-86
2022/07/23 02:53:37;;;;;;;11.95;10.55;;;;;;;19.36;100.00;96394.16;5115706;27;20203;-85
2022/07/23 02:56:05;;;;;;;17.47;10.90;;;;;;;19.35;100.00;96400.72;5113857;27;20263;-85
2022/07/23 02:58:32;;;;;;;11.90;9.93;;;;;;;19.32;100.00;96403.22;5119897;27;20245;-85
2022/07/23 03:00:59;;;;;;;12.27;10.83;;;;;;;19.36;100.00;96410.59;5128583;27;20215;-85
2022/07/23 03:03:27;;;;;;;12.27;11.07;;;;;;;19.38;100.00;96422.06;5119822;27;20204;-85
2022/07/23 03:05:55;;;;;;;11.67;10.40;;;;;;;19.31;100.00;96401.59;5114953;27;20267;-86
2022/07/23 03:08:22;;;;;;;13.35;11.38;;;;;;;19.26;100.00;96395.03;5114562;27;20241;-86
2022/07/23 03:10:52;;;;;;;13.47;10.60;;;;;;;19.30;100.00;96383.53;5117153;27;20204;-85
2022/07/23 03:13:19;;;;;;;11.70;10.60;;;;;;;19.36;100.00;96385.94;5116587;27;20204;-85
2022/07/23 03:15:46;;;;;;;11.53;10.37;;;;;;;19.25;100.00;96392.59;5123140;27;20192;-85
2022/07/23 03:18:14;;;;;;;13.67;10.10;;;;;;;19.22;100.00;96388.47;5117343;27;20205;-85
2022/07/23 03:20:41;;;;;;;11.53;10.00;;;;;;;19.18;100.00;96397.56;5110570;27;20235;-85
2022/07/23 03:23:11;;;;;;;11.63;10.43;;;;;;;19.22;100.00;96420.53;5113892;27;20200;-85
2022/07/23 03:25:38;;;;;;;12.90;10.63;;;;;;;19.24;100.00;96430.09;5117981;27;20207;-85
2022/07/23 03:28:06;;;;;;;14.00;10.93;;;;;;;19.25;100.00;96444.59;5114241;27;20250;-85
2022/07/23 03:30:33;;;;;;;12.03;10.90;;;;;;;19.20;100.00;96445.47;5129253;27;20210;-86
2022/07/23 03:33:00;;;;;;;13.83;10.83;;;;;;;19.21;100.00;96451.75;5123029;27;20323;-85
2022/07/23 03:35:27;;;;;;;11.30;10.20;;;;;;;19.19;100.00;96440.25;5117850;27;20299;-85
2022/07/23 03:38:11;;;;;;;11.63;10.30;;;;;;;19.21;100.00;96427.94;5116948;27;20204;-85
2022/07/23 03:40:39;;;;;;;12.80;11.57;;;;;;;19.22;100.00;96393.16;5118410;27;20204;-85
2022/07/23 03:43:06;;;;;;;12.07;10.73;;;;;;;19.13;100.00;96365.59;5112897;27;20234;-85
2022/07/23 03:45:33;;;;;;;14.00;11.93;;;;;;;19.15;100.00;96374.31;5114684;27;20285;-85
2022/07/23 03:48:01;;;;;;;14.77;11.93;;;;;;;19.15;100.00;96382.50;5120680;27;20226;-85
2022/07/23 03:50:29;;;;;;;16.00;13.57;;;;;;;19.13;100.00;96395.69;5121252;27;20211;-86
2022/07/23 03:52:56;;;;;;;13.40;11.83;;;;;;;19.18;100.00;96405.78;5111803;27;20203;-86
2022/07/23 03:55:25;;;;;;;12.03;10.77;;;;;;;19.18;100.00;96397.56;5120694;27;20223;-86
2022/07/23 03:57:52;;;;;;;12.73;10.63;;;;;;;19.16;100.00;96370.47;5114246;27;20434;-85
2022/07/23 04:00:19;;;;;;;12.83;11.63;;;;;;;19.14;100.00;96349.97;5114620;27;20524;-85
2022/07/23 04:02:50;;;;;;;14.03;11.03;;;;;;;19.15;100.00;96344.19;5114319;27;20257;-85
2022/07/23 04:05:18;;;;;;;15.90;11.17;;;;;;;19.13;100.00;96340.13;5114298;27;20228;-85
2022/07/23 04:07:48;;;;;;;12.80;11.50;;;;;;;19.10;100.00;96362.59;5117250;27;20240;-85
2022/07/23 04:10:15;;;;;;;12.30;11.10;;;;;;;19.18;100.00;96359.25;5118754;27;20207;-84
2022/07/23 04:12:44;;;;;;;13.37;11.97;;;;;;;19.26;100.00;96345.75;5110591;27;20208;-84
2022/07/23 04:15:11;;;;;;;13.07;11.10;;;;;;;19.25;100.00;96343.31;5113008;27;20256;-85
2022/07/23 04:17:38;;;;;;;11.03;10.03;;;;;;;19.47;100.00;96335.50;5112407;27;20212;-84
2022/07/23 04:20:07;;;;;;;11.47;10.37;;;;;;;19.63;100.00;96317.84;5117446;27;20291;-84
2022/07/23 04:22:40;;;;;;;11.37;10.27;;;;;;;19.75;100.00;96291.94;5111894;27;20204;-85
2022/07/23 04:25:08;;;;;;;11.83;10.10;;;;;;;19.83;100.00;96305.84;5110768;27;20200;-85
2022/07/23 04:27:35;;;;;;;11.80;9.60;;;;;;;19.86;100.00;96315.41;5117963;27;20306;-85
2022/07/23 04:30:04;;;;;;;10.57;9.47;;;;;;;19.82;100.00;96303.41;5119569;27;20207;-85
2022/07/23 04:32:31;;;;;;;11.43;10.33;;;;;;;19.81;100.00;96301.78;5108424;27;20207;-84
2022/07/23 04:34:59;;;;;;;10.60;9.50;;;;;;;19.81;100.00;96310.00;5114308;27;20291;-85
2022/07/23 04:37:26;;;;;;;10.87;9.83;;;;;;;19.80;100.00;96322.06;5139629;27;20206;-85
2022/07/23 04:39:53;;;;;;;10.00;9.10;;;;;;;19.88;100.00;96311.28;5125865;27;20207;-85
2022/07/23 04:42:20;;;;;;;10.03;9.03;;;;;;;19.89;100.00;96323.06;5114747;27;20211;-85
2022/07/23 04:44:47;;;;;;;10.52;9.43;;;;;;;19.86;100.00;96310.75;5112449;27;20212;-83
2022/07/23 04:47:15;;;;;;;10.15;9.15;;;;;;;19.87;100.00;96312.38;5119032;27;20219;-83
2022/07/23 04:49:45;;;;;;;12.38;9.60;;;;;;;19.80;100.00;96313.84;5111458;27;20284;-83
2022/07/23 04:52:12;;;;;;;9.75;8.75;;;;;;;19.81;100.00;96310.81;5110382;27;20256;-83
2022/07/23 04:54:39;;;;;;;13.05;9.07;;;;;;;19.63;100.00;96289.63;5120471;27;20207;-83
2022/07/23 04:57:06;;;;;;;10.93;9.83;;;;;;;19.60;100.00;96273.75;5116301;27;20211;-83
2022/07/23 04:59:33;;;;;;;10.73;9.00;;;;;;;19.63;100.00;96263.06;5111821;27;20546;-84
2022/07/23 05:02:04;;;;;;;10.67;9.53;;;;;;;19.65;100.00;96263.56;5114739;27;20192;-83
2022/07/23 05:04:34;;;;;;;9.45;8.55;;;;;;;19.68;100.00;96243.00;5114856;27;20288;-83
2022/07/23 05:07:01;;;;;;;10.63;9.17;;;;;;;19.73;100.00;96242.13;5124482;27;20231;-83
2022/07/23 05:09:29;;;;;;;10.57;9.50;;;;;;;19.83;100.00;96231.84;5116104;27;20204;-83
2022/07/23 05:11:56;;;;;;;11.25;8.68;;;;;;;19.98;100.00;96236.38;5111385;27;20200;-83
2022/07/23 05:14:23;;;;;;;9.63;8.35;;;;;;;20.09;100.00;96248.00;5117234;27;20225;-84
2022/07/23 05:16:52;;;;;;;11.55;8.68;;;;;;;20.11;100.00;96257.56;5110398;27;20297;-83
2022/07/23 05:19:23;;;;;;;11.60;8.30;;;;;;;20.10;100.00;96266.06;5114720;27;20196;-84
2022/07/23 05:21:51;;;;;;;10.35;8.68;;;;;;;20.12;100.00;96283.06;5110900;28;20208;-83
2022/07/23 05:24:19;;;;;;;10.15;8.52;;;;;;;20.33;100.00;96298.94;5109561;27;20204;-83
2022/07/23 05:26:46;;;;;;;12.25;9.88;;;;;;;20.34;100.00;96314.34;5124289;27;20223;-83
2022/07/23 05:29:13;;;;;;;11.02;9.93;;;;;;;20.19;100.00;96328.19;5118494;27;20199;-83
2022/07/23 05:31:40;;;;;;;11.02;9.63;;;;;;;20.16;100.00;96342.47;5124190;28;20287;-84
2022/07/23 05:34:07;;;;;;;10.60;9.55;;;;;;;20.27;100.00;96363.19;5118109;28;20204;-83
2022/07/23 05:36:36;;;;;;;11.63;10.02;;;;;;;20.27;100.00;96371.44;5112046;28;20200;-83
2022/07/23 05:39:05;;;;;;;10.82;9.73;;;;;;;20.24;100.00;96382.19;5113959;28;20206;-84
2022/07/23 05:41:35;;;;;;;10.05;8.95;;;;;;;20.26;100.00;96386.25;5112338;27;20226;-83
2022/07/23 05:44:04;;;;;;;10.18;9.13;;;;;;;20.35;100.00;96406.47;5119055;27;20200;-83
2022/07/23 05:46:32;;;;;;;11.23;9.20;;;;;;;20.42;100.00;96405.28;5110848;28;20203;-82
2022/07/23 05:49:05;;;;;;;9.77;8.88;;;;;;;20.44;100.00;96406.66;5124780;28;20318;-81
2022/07/23 05:52:06;;;;;;;9.52;8.50;;;;;;;20.51;100.00;96431.78;5081897;27;20215;-81
2022/07/23 05:54:52;;;;;;;10.65;9.02;;;;;;;20.53;100.00;96440.56;5110328;28;20231;-81
2022/07/23 05:57:19;;;;;;;10.45;9.40;;;;;;;20.53;100.00;96440.56;5114239;28;20215;-83
2022/07/23 05:59:46;;;;;;;11.43;9.32;;;;;;;20.50;100.00;96454.06;5111792;28;20203;-82
2022/07/23 06:02:13;;;;;;;9.80;8.85;;;;;;;20.55;100.00;96456.72;5114999;27;20299;-83
2022/07/23 06:04:40;;;;;;;9.75;8.75;;;;;;;20.63;100.00;96458.84;5109093;27;20196;-83
2022/07/23 06:07:29;;;;;;;10.02;8.77;;;;;;;20.71;100.00;96470.00;5120540;27;20269;-83
2022/07/23 06:09:59;;;;;;;10.50;9.35;;;;;;;20.81;100.00;96463.56;5117560;28;20207;-83
2022/07/23 06:12:26;;;;;;;9.48;8.57;;;;;;;20.85;100.00;96459.09;5111299;28;20282;-83
2022/07/23 06:14:53;;;;;;;10.95;9.15;;;;;;;20.93;100.00;96466.69;5108851;28;20217;-83
2022/07/23 06:17:20;;;;;;;10.50;9.50;;;;;;;20.97;100.00;96465.00;5117695;27;20200;-83
2022/07/23 06:19:47;;;;;;;10.40;8.35;;;;;;;20.86;100.00;96460.75;5125947;27;20198;-83
2022/07/23 06:22:16;;;;;;;11.13;9.60;;;;;;;20.84;100.00;96462.97;5120548;27;20208;-83
2022/07/23 06:24:44;;;;;;;10.55;9.45;;;;;;;20.84;100.00;96465.72;5114051;27;20211;-83
2022/07/23 06:27:12;;;;;;;9.27;8.43;;;;;;;20.91;100.00;96462.63;5116492;27;20289;-83
2022/07/23 06:29:40;;;;;;;11.25;9.57;;;;;;;20.92;100.00;96467.00;5111301;27;20196;-83
2022/07/23 06:32:07;;;;;;;11.07;9.85;;;;;;;20.98;100.00;96477.63;5114324;27;20211;-83
2022/07/23 06:34:34;;;;;;;12.50;9.40;;;;;;;21.05;100.00;96477.28;5122365;27;20196;-84
2022/07/23 06:37:01;;;;;;;13.10;11.75;;;;;;;21.08;100.00;96471.19;5116136;27;20238;-83
2022/07/23 06:39:29;;;;;;;11.35;9.23;;;;;;;21.22;100.00;96469.38;5113148;27;20215;-83
2022/07/23 06:41:58;;;;;;;10.25;9.20;;;;;;;21.28;100.00;96472.88;5127221;27;20321;-83
2022/07/23 06:44:38;;;;;;;10.15;8.80;;;;;;;21.32;100.00;96479.44;5148752;27;20196;-83
2022/07/23 06:47:08;;;;;;;11.48;9.95;;;;;;;21.39;100.00;96483.44;5138374;27;20218;-83
2022/07/23 06:49:36;;;;;;;11.93;10.10;;;;;;;21.41;100.00;96477.66;5141256;27;20206;-84
2022/07/23 06:52:03;;;;;;;9.95;8.93;;;;;;;21.49;100.00;96485.22;5132200;27;20199;-83
2022/07/23 06:54:30;;;;;;;10.75;9.35;;;;;;;21.46;100.00;96497.63;5130551;27;20204;-83
2022/07/23 06:56:57;;;;;;;10.98;9.77;;;;;;;21.53;100.00;96489.00;5143379;27;20227;-83
2022/07/23 06:59:24;;;;;;;11.18;9.27;;;;;;;21.74;100.00;96492.28;5141394;27;20218;-82
2022/07/23 07:01:53;;;;;;;9.88;8.52;;;;;;;21.81;100.00;96488.03;5131820;27;20199;-83
2022/07/23 07:04:20;;;;;;;10.55;9.55;;;;;;;21.96;100.00;96494.41;5135484;27;20196;-84
2022/07/23 07:06:47;;;;;;;10.23;9.18;;;;;;;22.05;100.00;96509.16;5138872;27;20237;-83
2022/07/23 07:09:14;;;;;;;10.35;9.32;;;;;;;22.00;100.00;96512.81;5132771;27;20234;-83
2022/07/23 07:11:41;;;;;;;9.68;8.63;;;;;;;21.96;100.00;96517.22;5132229;27;20203;-84
2022/07/23 07:14:08;;;;;;;10.27;8.98;;;;;;;21.96;100.00;96508.97;5144710;27;20334;-84
2022/07/23 07:16:35;;;;;;;9.60;8.65;;;;;;;22.01;100.00;96521.88;5135394;27;20308;-84
2022/07/23 07:19:03;;;;;;;10.52;9.38;;;;;;;22.02;100.00;96526.25;5138517;27;20204;-84
2022/07/23 07:21:30;;;;;;;11.48;9.27;;;;;;;22.07;100.00;96526.16;5135469;27;20199;-84
2022/07/23 07:23:57;;;;;;;10.40;9.20;;;;;;;22.05;100.00;96520.16;5135287;27;20294;-83
2022/07/23 07:26:24;;;;;;;9.95;8.85;;;;;;;22.10;100.00;96522.84;5128569;27;20214;-84
2022/07/23 07:28:51;;;;;;;10.35;9.27;;;;;;;22.16;100.00;96519.69;5131367;27;20230;-84
2022/07/23 07:31:18;;;;;;;10.70;9.52;;;;;;;22.26;100.00;96533.28;5131964;27;20203;-84
2022/07/23 07:33:46;;;;;;;10.45;9.38;;;;;;;22.26;100.00;96522.28;5132214;27;20199;-84
2022/07/23 07:36:14;;;;;;;10.05;9.05;;;;;;;22.26;100.00;96511.28;5140865;27;20294;-84
2022/07/23 07:38:41;;;;;;;10.43;9.43;;;;;;;22.32;100.00;96501.00;5146260;27;20262;-84
2022/07/23 07:41:09;;;;;;;14.15;11.07;;;;;;;22.60;100.00;96524.72;5138060;27;20206;-83
2022/07/23 07:43:37;;;;;;;11.35;10.00;;;;;;;23.12;100.00;96538.38;5136531;27;20199;-84
2022/07/23 07:46:04;;;;;;;12.38;9.82;;;;;;;23.42;100.00;96531.41;5140061;27;20203;-84
2022/07/23 07:48:31;;;;;;;12.15;10.57;;;;;;;23.78;100.00;96526.78;5142237;27;20226;-83
2022/07/23 07:50:58;;;;;;;10.60;9.45;;;;;;;23.95;100.00;96529.72;5134870;27;20207;-84
2022/07/23 07:53:26;;;;;;;10.88;9.77;;;;;;;24.03;100.00;96520.69;5131885;27;20205;-84
2022/07/23 07:55:53;;;;;;;10.70;9.60;;;;;;;24.08;100.00;96530.78;5128446;27;20227;-83
2022/07/23 07:58:20;;;;;;;11.02;9.85;;;;;;;24.04;100.00;96527.03;5142880;27;20219;-84
2022/07/23 08:00:47;;;;;;;10.32;9.18;;;;;;;23.99;100.00;96518.84;5136904;27;20192;-85
2022/07/23 08:03:14;;;;;;;12.45;9.85;;;;;;;23.90;100.00;96515.22;5134821;27;20203;-85
2022/07/23 08:05:41;;;;;;;10.23;9.27;;;;;;;24.04;100.00;96527.03;5128987;27;20234;-84
2022/07/23 08:08:14;;;;;;;10.43;9.25;;;;;;;24.23;100.00;96524.13;5133982;27;20219;-85
2022/07/23 08:10:43;;;;;;;12.57;9.63;;;;;;;24.26;100.00;96526.25;5134080;27;20210;-85
2022/07/23 08:13:14;;;;;;;11.18;9.88;;;;;;;24.17;100.00;96525.31;5140775;27;20195;-84
2022/07/23 08:15:41;;;;;;;10.73;9.23;;;;;;;24.11;100.00;96530.16;5138445;27;20797;-85
2022/07/23 08:18:08;;;;;;;11.35;9.05;;;;;;;23.89;100.00;96524.63;5138118;27;20203;-84
2022/07/23 08:20:36;;;;;;;10.10;9.00;;;;;;;23.84;100.00;96521.97;5135600;27;20286;-85
2022/07/23 08:23:05;;;;;;;10.63;9.63;;;;;;;23.68;100.00;96524.25;5132507;27;20206;-84
2022/07/23 08:25:34;;;;;;;10.18;8.60;;;;;;;23.48;100.00;96513.66;5138766;27;20199;-84
2022/07/23 08:28:05;;;;;;;10.10;9.10;;;;;;;23.39;100.00;96519.88;5138964;27;20247;-85
2022/07/23 08:30:33;;;;;;;10.73;8.73;;;;;;;23.20;100.00;96515.63;5134015;27;20275;-84
2022/07/23 08:33:02;;;;;;;10.07;9.07;;;;;;;23.18;100.00;96510.41;5138742;27;20192;-84
2022/07/23 08:35:31;;;;;;;10.13;8.93;;;;;;;23.07;100.00;96506.22;5140242;27;20239;-84
2022/07/23 08:38:00;;;;;;;10.43;9.32;;;;;;;22.88;100.00;96505.53;5144233;27;20195;-84
2022/07/23 08:40:29;;;;;;;9.75;8.75;;;;;;;22.91;100.00;96499.41;5139888;27;20202;-84
2022/07/23 08:42:57;;;;;;;12.43;8.68;;;;;;;22.86;100.00;96499.50;5149591;27;20336;-85
2022/07/23 08:45:27;;;;;;;11.18;9.35;;;;;;;22.90;100.00;96492.25;5137884;27;20297;-84
2022/07/23 08:47:55;;;;;;;10.85;9.55;;;;;;;23.02;100.00;96501.66;5136778;27;20560;-85
2022/07/23 08:50:24;;;;;;;10.45;9.35;;;;;;;23.11;100.00;96501.75;5131493;27;20208;-84
2022/07/23 08:52:52;;;;;;;10.20;9.18;;;;;;;23.17;100.00;96494.19;5131549;27;20196;-84
2022/07/23 08:55:28;;;;;;;12.25;11.05;;;;;;;23.25;100.00;96493.47;5131437;27;20206;-84
2022/07/23 08:57:56;;;;;;;10.57;9.57;;;;;;;23.34;100.00;96506.22;5140251;27;20215;-86
2022/07/23 09:00:25;;;;;;;10.60;9.35;;;;;;;23.57;100.00;96506.31;5129046;27;20206;-86
2022/07/23 09:02:52;;;;;;;11.15;9.63;;;;;;;23.90;100.00;96504.19;5143828;27;20210;-86
2022/07/23 09:05:20;;;;;;;11.98;8.98;;;;;;;24.23;100.00;96504.81;5140835;27;20239;-86
2022/07/23 09:08:06;;;;;;;9.95;9.02;;;;;;;24.58;100.00;96498.41;5142336;27;20306;-86
2022/07/23 09:10:45;;;;;;;10.93;9.77;;;;;;;24.84;100.00;96496.56;5116018;27;20199;-86
2022/07/23 09:13:37;;;;;;;11.57;10.15;;;;;;;25.06;100.00;96498.47;5129031;27;20207;-86
2022/07/23 09:16:08;;;;;;;10.48;9.38;;;;;;;25.32;99.72;96495.00;5127029;27;20217;-86
2022/07/23 09:18:39;;;;;;;11.05;9.73;;;;;;;25.38;94.08;96483.47;5139395;27;20262;-85
2022/07/23 09:21:11;;;;;;;10.88;9.15;;;;;;;25.44;93.39;96487.69;5135524;27;20230;-85
2022/07/23 09:23:40;;;;;;;10.57;9.48;;;;;;;25.54;91.61;96473.56;5136773;27;20287;-85
2022/07/23 09:26:19;;;;;;;10.57;9.50;;;;;;;25.69;87.40;96472.31;5138455;27;20195;-86
2022/07/23 09:28:56;;;;;;;11.05;9.25;;;;;;;25.78;87.55;96475.06;5141755;27;20218;-86
2022/07/23 09:31:25;;;;;;;10.50;9.40;;;;;;;26.09;87.94;96461.91;5127096;27;20206;-86
2022/07/23 09:33:53;;;;;;;10.32;9.20;;;;;;;26.10;80.32;96455.25;5131278;27;20209;-86
2022/07/23 09:36:30;;;;;;;15.00;9.45;;;;;;;26.17;82.87;96449.19;5133671;27;20199;-86
2022/07/23 09:38:57;;;;;;;11.02;9.90;;;;;;;26.49;84.82;96445.91;5132793;27;20203;-86
2022/07/23 09:41:24;;;;;;;10.70;9.60;;;;;;;26.72;83.06;96444.53;5125618;27;20191;-86
2022/07/23 09:44:08;;;;;;;11.35;10.23;;;;;;;26.93;79.45;96444.66;5134826;27;20199;-86
2022/07/23 09:46:39;;;;;;;9.70;8.70;;;;;;;27.03;78.83;96443.47;5128521;27;20203;-86
2022/07/23 09:49:13;;;;;;;10.13;8.38;;;;;;;27.19;76.37;96435.38;5133969;27;20229;-86
2022/07/23 09:51:47;;;;;;;10.18;9.23;;;;;;;27.21;77.90;96438.66;5140899;27;20215;-87
2022/07/23 09:54:25;;;;;;;9.05;8.23;;;;;;;27.11;80.87;96437.88;5138688;27;20203;-86
2022/07/23 09:56:52;;;;;;;10.52;8.98;;;;;;;27.16;78.30;96438.81;5129797;27;20223;-86
2022/07/23 09:59:24;;;;;;;9.05;8.20;;;;;;;27.19;77.44;96441.75;5145039;27;20204;-86
2022/07/23 10:01:54;;;;;;;9.57;8.68;;;;;;;27.40;77.61;96447.31;5137832;27;20202;-87
2022/07/23 10:04:22;;;;;;;8.98;7.75;;;;;;;27.34;75.75;96432.03;5127614;27;20211;-86
2022/07/23 10:07:14;;;;;;;9.50;8.60;;;;;;;27.50;76.45;96433.88;5131831;27;20319;-86
2022/07/23 10:10:01;;;;;;;9.02;8.13;;;;;;;27.45;72.66;96444.38;5130161;27;20230;-87
2022/07/23 10:16:03;;;;;;;11.00;8.30;;;;;;;27.41;74.73;96435.88;5042769;28;20204;-84
2022/07/23 10:18:33;;;;;;;9.40;8.10;;;;;;;27.28;74.21;96441.69;5110168;27;20210;-84
2022/07/23 10:21:01;;;;;;;10.60;8.07;;;;;;;27.05;75.41;96436.41;5132859;27;20230;-86
2022/07/23 10:23:36;;;;;;;8.77;7.78;;;;;;;27.03;75.26;96427.66;5140730;27;20207;-87
2022/07/23 10:26:11;;;;;;;8.82;7.75;;;;;;;27.09;73.10;96425.50;5138617;27;20199;-87
2022/07/23 10:29:03;;;;;;;10.63;8.60;;;;;;;27.32;75.73;96434.31;5131466;27;20228;-86
2022/07/23 10:31:42;;;;;;;10.15;8.38;;;;;;;27.38;75.90;96431.03;5132588;27;20215;-86
2022/07/23 10:34:18;;;;;;;8.85;7.97;;;;;;;27.14;72.32;96436.38;5131315;27;20209;-87
2022/07/23 10:36:50;;;;;;;8.18;7.28;;;;;;;26.97;71.98;96445.59;5128756;27;20211;-87
2022/07/23 10:39:23;;;;;;;9.00;7.97;;;;;;;26.72;72.33;96438.16;5133425;27;20207;-86
2022/07/23 10:41:51;;;;;;;9.10;8.13;;;;;;;26.49;74.42;96437.59;5156452;27;20315;-86
2022/07/23 10:44:23;;;;;;;8.93;7.90;;;;;;;26.42;76.98;96439.25;5142049;27;20191;-86
2022/07/23 10:47:09;;;;;;;8.82;7.80;;;;;;;26.40;74.75;96439.56;5135221;27;20222;-86
2022/07/23 10:49:39;;;;;;;11.80;8.07;;;;;;;26.28;73.40;96434.72;5130714;27;20215;-86
2022/07/23 10:52:33;;;;;;;10.63;8.60;;;;;;;26.29;73.29;96429.97;5131164;27;20210;-86
2022/07/23 10:55:33;;;;;;;9.00;7.90;;;;;;;26.32;74.39;96424.63;5132393;27;20218;-85
2022/07/23 10:58:02;;;;;;;10.00;8.15;;;;;;;26.45;73.34;96417.25;5140649;27;20199;-85
2022/07/23 11:00:31;;;;;;;9.73;8.40;;;;;;;26.46;75.40;96421.63;5129497;27;20199;-86
2022/07/23 11:02:59;;;;;;;10.15;8.40;;;;;;;26.49;77.41;96417.41;5129365;27;20205;-86
2022/07/23 11:05:41;;;;;;;9.32;8.32;;;;;;;26.54;76.99;96420.78;5136279;27;20227;-86
2022/07/23 11:08:17;;;;;;;8.38;7.35;;;;;;;26.57;76.61;96420.13;5140584;27;20260;-85
2022/07/23 11:10:47;;;;;;;9.27;7.53;;;;;;;26.53;75.07;96416.44;5147110;27;20230;-86
2022/07/23 11:13:32;;;;;;;9.35;8.45;;;;;;;26.70;75.16;96426.63;5130941;27;20216;-86
2022/07/23 11:16:17;;;;;;;10.20;8.52;;;;;;;26.77;74.94;96410.31;5132892;27;20218;-86
2022/07/23 11:19:06;;;;;;;8.85;8.05;;;;;;;27.14;73.60;96411.44;5128497;27;20208;-86
2022/07/23 11:21:48;;;;;;;8.52;7.72;;;;;;;27.45;73.17;96397.22;5114811;27;20221;-85
2022/07/23 11:24:21;;;;;;;8.57;7.72;;;;;;;27.77;72.38;96406.78;5133812;27;20289;-85
2022/07/23 11:26:54;;;;;;;10.55;8.07;;;;;;;27.92;70.40;96408.94;5134445;27;20257;-86
2022/07/23 11:29:46;;;;;;;8.27;7.47;;;;;;;27.93;70.58;96404.19;5128901;27;20446;-86
2022/07/23 11:32:39;;;;;;;8.90;8.10;;;;;;;27.80;68.66;96400.56;5139721;27;20296;-83